East Charleston, Pennsylvania
Current Conditions -  °F | °C
As of 12:15 PM on Thursday 18 Dec 2014 (Local Time) from KN38 Reporting Station
Overcast Overcast  
Wind Chill: 19°   Ceiling: 1400
Heat Index: 28°   Visibility: 10mi
Dew Point: 25°   Wind: 10mph
Humidity: 86%   Direction: 290°WNW
Pressure: 30"   Gusts: NA
Location:  41.8345°N, 77.0538°W
Report Text: KN38 181715Z AUTO 29009KT 10SM OVC014 M02/M04 A3000 RMK AO2
Loading
Personal Weather Stations






























Interactive Weather Map New forecast layout! Learn more

10-Day Weather Forecast

Advertisements
Track Severe Weather on mobile